createdAt,value
2023-02-19T00:00:05.122Z,25.90
2023-02-19T00:01:05.042Z,28.40
2023-02-19T00:02:05.004Z,28.20
2023-02-19T00:03:04.962Z,25.80
2023-02-19T00:04:04.919Z,25.90
2023-02-19T00:05:04.927Z,27.00
2023-02-19T00:06:04.856Z,24.40
2023-02-19T00:07:04.820Z,26.30
2023-02-19T00:08:04.784Z,26.20
2023-02-19T00:09:04.744Z,26.20
2023-02-19T00:10:04.712Z,25.00
2023-02-19T00:11:04.661Z,23.80
2023-02-19T00:12:04.624Z,23.80
2023-02-19T00:13:04.597Z,22.10
2023-02-19T00:14:04.550Z,21.30
2023-02-19T00:15:04.525Z,22.70
2023-02-19T00:16:04.522Z,23.70
2023-02-19T00:17:04.454Z,23.50
2023-02-19T00:18:04.412Z,26.50
2023-02-19T00:19:04.369Z,27.70
2023-02-19T00:20:04.352Z,21.90
2023-02-19T00:21:04.304Z,22.20
2023-02-19T00:22:04.266Z,20.30
2023-02-19T00:23:04.216Z,21.00
2023-02-19T00:24:04.181Z,20.80
2023-02-19T00:25:04.154Z,21.10
2023-02-19T00:26:17.168Z,23.30
2023-02-19T00:27:05.070Z,22.00
2023-02-19T00:28:04.011Z,22.20
2023-02-19T00:29:03.987Z,22.80
2023-02-19T00:30:03.964Z,22.20
2023-02-19T00:31:03.920Z,24.50
2023-02-19T00:32:03.895Z,23.40
2023-02-19T00:33:03.798Z,21.80
2023-02-19T00:34:03.755Z,23.60
2023-02-19T00:35:03.740Z,22.80
2023-02-19T00:36:03.682Z,25.00
2023-02-19T00:37:03.630Z,22.20
2023-02-19T00:38:03.594Z,24.60
2023-02-19T00:39:03.563Z,25.70
2023-02-19T00:40:03.543Z,24.20
2023-02-19T00:41:03.473Z,19.80
2023-02-19T00:42:03.455Z,21.90
2023-02-19T00:43:03.421Z,28.40
2023-02-19T00:44:03.356Z,22.10
2023-02-19T00:45:03.360Z,24.70
2023-02-19T00:46:03.317Z,25.30
2023-02-19T00:47:03.249Z,24.30
2023-02-19T00:48:03.224Z,22.50
2023-02-19T00:49:03.177Z,22.20
2023-02-19T00:50:03.146Z,24.90
2023-02-19T00:51:03.115Z,25.00
2023-02-19T00:52:03.058Z,23.40
2023-02-19T00:53:03.007Z,24.90
2023-02-19T00:54:02.966Z,28.00
2023-02-19T00:55:02.929Z,25.50
2023-02-19T00:56:02.858Z,29.40
2023-02-19T00:57:02.828Z,28.70
2023-02-19T00:58:02.778Z,28.40
2023-02-19T00:59:02.769Z,29.20
2023-02-19T01:00:02.703Z,28.80
2023-02-19T01:01:02.663Z,26.30
2023-02-19T01:02:02.611Z,30.40
2023-02-19T01:03:02.593Z,27.80
2023-02-19T01:04:04.300Z,26.60
2023-02-19T01:05:02.572Z,26.70
2023-02-19T01:06:02.463Z,27.00
2023-02-19T01:07:02.447Z,28.70
2023-02-19T01:08:02.397Z,29.10
2023-02-19T01:09:02.358Z,26.80
2023-02-19T01:10:02.327Z,29.30
2023-02-19T01:11:02.293Z,26.80
2023-02-19T01:12:02.245Z,28.70
2023-02-19T01:13:02.207Z,31.30
2023-02-19T01:14:02.169Z,26.70
2023-02-19T01:15:02.142Z,26.90
2023-02-19T01:16:02.152Z,27.70
2023-02-19T01:17:02.059Z,28.10
2023-02-19T01:18:02.036Z,26.50
2023-02-19T01:19:01.979Z,26.90
2023-02-19T01:20:01.943Z,27.70
2023-02-19T01:21:01.908Z,29.30
2023-02-19T01:22:01.870Z,25.80
2023-02-19T01:23:01.849Z,24.90
2023-02-19T01:24:01.800Z,24.80
2023-02-19T01:25:01.806Z,27.50
2023-02-19T01:26:01.739Z,24.20
2023-02-19T01:27:01.723Z,26.80
2023-02-19T01:28:01.680Z,28.40
2023-02-19T01:29:01.647Z,24.40
2023-02-19T01:30:01.686Z,26.00
2023-02-19T01:31:01.632Z,26.90
2023-02-19T01:32:01.658Z,27.10
2023-02-19T01:33:01.522Z,25.70
2023-02-19T01:34:01.477Z,26.90
2023-02-19T01:35:01.449Z,22.70
2023-02-19T01:36:01.410Z,22.00
2023-02-19T01:37:01.393Z,22.00
2023-02-19T01:38:01.345Z,25.90
2023-02-19T01:39:01.318Z,22.40
2023-02-19T01:40:01.284Z,23.60
2023-02-19T01:41:01.255Z,23.40
2023-02-19T01:42:01.214Z,23.70
2023-02-19T01:43:01.183Z,25.30
2023-02-19T01:44:01.153Z,24.80
2023-02-19T01:45:01.121Z,23.40
2023-02-19T01:46:01.064Z,22.70
2023-02-19T01:47:01.017Z,24.50
2023-02-19T01:48:00.993Z,22.90
2023-02-19T01:49:00.946Z,22.90
2023-02-19T01:50:00.914Z,25.30
2023-02-19T01:51:00.878Z,22.60
2023-02-19T01:52:00.849Z,27.00
2023-02-19T01:53:00.809Z,23.40
2023-02-19T01:54:00.770Z,24.30
2023-02-19T01:55:00.740Z,23.40
2023-02-19T01:56:00.694Z,23.80
2023-02-19T01:57:00.658Z,24.50
2023-02-19T01:58:00.620Z,24.80
2023-02-19T01:59:00.591Z,22.60
2023-02-19T02:00:00.573Z,24.30
2023-02-19T02:01:00.543Z,24.60
2023-02-19T02:02:00.566Z,25.30
2023-02-19T02:03:00.451Z,23.80
2023-02-19T02:04:00.418Z,22.50
2023-02-19T02:05:00.389Z,24.80
2023-02-19T02:06:00.333Z,23.50
2023-02-19T02:07:00.292Z,23.00
2023-02-19T02:08:00.261Z,22.70
2023-02-19T02:09:00.237Z,21.70
2023-02-19T02:10:00.213Z,21.80
2023-02-19T02:11:00.153Z,21.10
2023-02-19T02:12:00.120Z,22.70
2023-02-19T02:13:00.106Z,20.60
2023-02-19T02:14:00.067Z,22.90
2023-02-19T02:15:00.076Z,21.50
2023-02-19T02:16:00.054Z,23.90
2023-02-19T02:16:59.968Z,20.30
2023-02-19T02:17:59.929Z,19.10
2023-02-19T02:18:59.908Z,22.80
2023-02-19T02:19:59.878Z,20.60
2023-02-19T02:20:59.848Z,21.80
2023-02-19T02:21:59.799Z,22.90
2023-02-19T02:22:59.782Z,20.60
2023-02-19T02:23:59.742Z,25.60
2023-02-19T02:24:59.733Z,23.20
2023-02-19T02:25:59.698Z,20.10
2023-02-19T02:26:59.664Z,23.00
2023-02-19T02:27:59.623Z,25.10
2023-02-19T02:28:59.595Z,24.80
2023-02-19T02:29:59.628Z,24.10
2023-02-19T02:30:59.584Z,25.00
2023-02-19T02:31:59.647Z,22.80
2023-02-19T02:32:59.457Z,23.10
2023-02-19T02:33:59.415Z,23.30
2023-02-19T02:34:59.386Z,23.50
2023-02-19T02:35:59.351Z,22.90
2023-02-19T02:36:59.305Z,22.20
2023-02-19T02:37:59.267Z,22.30
2023-02-19T02:38:59.227Z,23.50
2023-02-19T02:39:59.210Z,23.60
2023-02-19T02:40:59.147Z,21.00
2023-02-19T02:41:59.102Z,21.90
2023-02-19T02:42:59.049Z,22.50
2023-02-19T02:43:59.018Z,23.50
2023-02-19T02:44:58.986Z,21.30
2023-02-19T02:45:59.004Z,22.80
2023-02-19T02:46:58.902Z,23.30
2023-02-19T02:47:58.870Z,24.10
2023-02-19T02:48:58.822Z,23.90
2023-02-19T02:49:58.799Z,22.20
2023-02-19T02:50:58.759Z,21.40
2023-02-19T02:51:58.712Z,22.80
2023-02-19T02:52:58.682Z,22.50
2023-02-19T02:53:58.649Z,26.60
2023-02-19T02:54:58.623Z,27.00
2023-02-19T02:55:58.591Z,26.00
2023-02-19T02:56:58.566Z,26.30
2023-02-19T02:57:58.543Z,21.90
2023-02-19T02:58:58.495Z,26.60
2023-02-19T02:59:58.480Z,22.20
2023-02-19T03:00:58.457Z,22.90
2023-02-19T03:01:58.441Z,22.60
2023-02-19T03:02:58.374Z,21.20
2023-02-19T03:03:58.358Z,22.00
2023-02-19T03:04:58.334Z,20.80
2023-02-19T03:05:58.301Z,20.00
2023-02-19T03:06:58.255Z,19.40
2023-02-19T03:07:58.233Z,20.60
2023-02-19T03:08:58.194Z,19.80
2023-02-19T03:09:58.173Z,18.40
2023-02-19T03:10:58.143Z,18.40
2023-02-19T03:11:58.122Z,17.80
2023-02-19T03:12:58.074Z,19.30
2023-02-19T03:13:58.055Z,21.90
2023-02-19T03:14:58.038Z,21.70
2023-02-19T03:15:57.996Z,17.70
2023-02-19T03:16:57.955Z,19.40
2023-02-19T03:17:57.935Z,19.40
2023-02-19T03:18:57.897Z,21.20
2023-02-19T03:19:57.877Z,22.00
2023-02-19T03:20:57.838Z,19.00
2023-02-19T03:21:57.804Z,21.20
2023-02-19T03:22:57.777Z,22.00
2023-02-19T03:23:57.754Z,21.20
2023-02-19T03:24:57.727Z,23.00
2023-02-19T03:25:57.685Z,25.90
2023-02-19T03:26:57.656Z,25.10
2023-02-19T03:27:57.632Z,22.30
2023-02-19T03:28:57.585Z,25.00
2023-02-19T03:29:57.584Z,26.30
2023-02-19T03:30:57.545Z,24.70
2023-02-19T03:31:57.610Z,27.80
2023-02-19T03:32:57.447Z,24.50
2023-02-19T03:33:57.433Z,24.70
2023-02-19T03:34:57.396Z,29.10
2023-02-19T03:35:57.360Z,29.30
2023-02-19T03:36:57.326Z,26.70
2023-02-19T03:37:57.298Z,26.40
2023-02-19T03:38:57.256Z,24.20
2023-02-19T03:39:57.237Z,24.90
2023-02-19T03:40:57.209Z,25.00
2023-02-19T03:41:57.167Z,24.80
2023-02-19T03:42:57.129Z,27.90
2023-02-19T03:43:57.109Z,28.40
2023-02-19T03:44:57.076Z,26.80
2023-02-19T03:45:57.081Z,28.80
2023-02-19T03:46:57.022Z,29.00
2023-02-19T03:47:56.978Z,33.40
2023-02-19T03:48:56.949Z,37.20
2023-02-19T03:49:56.940Z,32.70
2023-02-19T03:50:56.886Z,34.70
2023-02-19T03:51:56.860Z,29.30
2023-02-19T03:52:56.838Z,20.10
2023-02-19T03:53:56.811Z,19.70
2023-02-19T03:54:56.789Z,23.50
2023-02-19T03:55:56.761Z,27.90
2023-02-19T03:56:56.713Z,23.40
2023-02-19T03:57:56.713Z,29.80
2023-02-19T03:58:56.665Z,22.40
2023-02-19T03:59:56.646Z,29.40
2023-02-19T04:00:56.595Z,31.00
2023-02-19T04:01:56.649Z,32.00
2023-02-19T04:02:56.546Z,22.70
2023-02-19T04:03:56.531Z,25.60
2023-02-19T04:04:56.551Z,17.40
2023-02-19T04:05:56.470Z,21.80
2023-02-19T04:06:56.441Z,26.90
2023-02-19T04:07:56.418Z,24.50
2023-02-19T04:08:56.394Z,25.90
2023-02-19T04:09:56.371Z,27.10
2023-02-19T04:10:56.340Z,36.30
2023-02-19T04:11:56.317Z,46.50
2023-02-19T04:12:56.282Z,37.20
2023-02-19T04:13:56.270Z,33.70
2023-02-19T04:14:56.241Z,25.20
2023-02-19T04:15:56.202Z,32.00
2023-02-19T04:16:56.226Z,47.80
2023-02-19T04:17:56.160Z,31.00
2023-02-19T04:18:56.121Z,31.50
2023-02-19T04:19:56.103Z,49.30
2023-02-19T04:20:56.063Z,47.40
2023-02-19T04:21:56.034Z,50.10
2023-02-19T04:22:56.004Z,56.70
2023-02-19T04:23:55.982Z,58.00
2023-02-19T04:24:55.956Z,52.70
2023-02-19T04:25:55.970Z,62.50
2023-02-19T04:26:55.892Z,70.00
2023-02-19T04:27:55.868Z,46.40
2023-02-19T04:28:55.814Z,68.80
2023-02-19T04:29:55.802Z,56.60
2023-02-19T04:30:55.841Z,63.00
2023-02-19T04:31:55.802Z,51.80
2023-02-19T04:32:55.696Z,50.00
2023-02-19T04:33:55.655Z,42.00
2023-02-19T04:34:55.644Z,60.50
2023-02-19T04:35:55.598Z,54.90
2023-02-19T04:36:55.555Z,48.60
2023-02-19T04:37:55.532Z,56.50
2023-02-19T04:38:55.482Z,59.80
2023-02-19T04:39:55.482Z,42.30
2023-02-19T04:40:55.422Z,51.40
2023-02-19T04:41:55.393Z,44.50
2023-02-19T04:42:55.376Z,46.90
2023-02-19T04:43:55.340Z,46.10
2023-02-19T04:44:55.301Z,34.70
2023-02-19T04:45:55.329Z,36.00
2023-02-19T04:46:55.244Z,44.60
2023-02-19T04:47:55.212Z,43.50
2023-02-19T04:48:55.161Z,32.80
2023-02-19T04:49:55.141Z,42.20
2023-02-19T04:50:55.113Z,38.50
2023-02-19T04:51:55.074Z,35.70
2023-02-19T04:52:55.054Z,33.40
2023-02-19T04:53:55.003Z,35.20
2023-02-19T04:54:54.964Z,44.80
2023-02-19T04:55:54.954Z,40.40
2023-02-19T04:56:54.915Z,31.20
2023-02-19T04:57:54.874Z,31.30
2023-02-19T04:58:54.853Z,35.10
2023-02-19T04:59:54.817Z,27.40
2023-02-19T05:00:54.794Z,37.50
2023-02-19T05:01:54.896Z,39.60
2023-02-19T05:02:54.705Z,31.80
2023-02-19T05:03:54.699Z,39.10
2023-02-19T05:04:54.657Z,43.40
2023-02-19T05:05:54.646Z,38.30
2023-02-19T05:06:54.589Z,35.80
2023-02-19T05:07:54.557Z,34.20
2023-02-19T05:08:54.529Z,39.00
2023-02-19T05:09:54.497Z,34.90
2023-02-19T05:10:54.467Z,33.30
2023-02-19T05:11:54.426Z,34.50
2023-02-19T05:12:56.253Z,40.00
2023-02-19T05:13:54.368Z,33.00
2023-02-19T05:14:54.309Z,32.50
2023-02-19T05:15:54.371Z,33.90
2023-02-19T05:16:54.248Z,30.50
2023-02-19T05:17:54.212Z,35.00
2023-02-19T05:18:54.188Z,38.30
2023-02-19T05:19:54.150Z,31.10
2023-02-19T05:20:54.100Z,29.40
2023-02-19T05:21:54.091Z,29.70
2023-02-19T05:22:54.031Z,28.40
2023-02-19T05:23:54.013Z,26.70
2023-02-19T05:24:53.984Z,27.00
2023-02-19T05:25:53.946Z,28.10
2023-02-19T05:26:53.929Z,25.00
2023-02-19T05:27:53.881Z,25.40
2023-02-19T05:28:53.837Z,22.60
2023-02-19T05:29:53.838Z,28.10
2023-02-19T05:30:53.797Z,24.50
2023-02-19T05:31:53.895Z,21.80
2023-02-19T05:32:53.714Z,25.60
2023-02-19T05:33:53.690Z,29.30
2023-02-19T05:34:53.655Z,26.40
2023-02-19T05:35:53.623Z,25.00
2023-02-19T05:36:53.596Z,24.70
2023-02-19T05:37:53.573Z,27.70
2023-02-19T05:38:53.523Z,27.00
2023-02-19T05:39:53.504Z,28.80
2023-02-19T05:40:53.489Z,27.90
2023-02-19T05:41:53.457Z,26.00
2023-02-19T05:42:53.448Z,19.60
2023-02-19T05:43:53.408Z,20.80
2023-02-19T05:44:53.379Z,24.80
2023-02-19T05:45:53.356Z,20.10
2023-02-19T05:46:53.340Z,21.10
2023-02-19T05:47:53.316Z,21.90
2023-02-19T05:48:53.313Z,22.40
2023-02-19T05:49:53.256Z,18.60
2023-02-19T05:50:53.219Z,20.60
2023-02-19T05:51:53.197Z,17.90
2023-02-19T05:52:53.187Z,20.00
2023-02-19T05:53:53.172Z,20.50
2023-02-19T05:54:53.128Z,22.60
2023-02-19T05:55:53.102Z,18.60
2023-02-19T05:56:53.062Z,18.80
2023-02-19T05:57:53.039Z,22.00
2023-02-19T05:58:53.008Z,20.40
2023-02-19T05:59:52.979Z,18.60
2023-02-19T06:00:52.950Z,22.20
2023-02-19T06:01:52.920Z,20.00
2023-02-19T06:02:52.903Z,22.60
2023-02-19T06:03:55.395Z,21.70
2023-02-19T06:04:52.821Z,21.20
2023-02-19T06:05:52.807Z,18.80
2023-02-19T06:06:52.770Z,12.90
2023-02-19T06:07:52.757Z,12.90
2023-02-19T06:08:52.745Z,15.30
2023-02-19T06:09:52.692Z,14.90
2023-02-19T06:10:52.672Z,14.40
2023-02-19T06:11:52.645Z,14.70
2023-02-19T06:12:52.603Z,15.30
2023-02-19T06:13:52.593Z,16.50
2023-02-19T06:14:52.553Z,16.50
2023-02-19T06:15:52.543Z,14.90
2023-02-19T06:16:52.480Z,17.30
2023-02-19T06:17:52.444Z,15.30
2023-02-19T06:18:52.413Z,17.70
2023-02-19T06:19:52.397Z,16.20
2023-02-19T06:20:52.357Z,13.90
2023-02-19T06:21:52.338Z,14.40
2023-02-19T06:22:52.289Z,14.40
2023-02-19T06:23:52.268Z,14.20
2023-02-19T06:24:52.252Z,17.70
2023-02-19T06:25:52.216Z,14.80
2023-02-19T06:26:52.186Z,16.60
2023-02-19T06:27:52.161Z,18.00
2023-02-19T06:28:52.148Z,17.00
2023-02-19T06:29:52.108Z,18.80
2023-02-19T06:30:52.061Z,18.90
2023-02-19T06:31:52.165Z,17.30
2023-02-19T06:32:52.010Z,18.90
2023-02-19T06:33:51.979Z,18.50
2023-02-19T06:34:51.943Z,14.70
2023-02-19T06:35:51.919Z,12.60
2023-02-19T06:36:51.912Z,16.50
2023-02-19T06:37:51.902Z,16.00
2023-02-19T06:38:51.806Z,17.10
2023-02-19T06:39:51.804Z,15.30
2023-02-19T06:40:51.763Z,13.70
2023-02-19T06:41:51.806Z,13.00
2023-02-19T06:42:51.695Z,12.10
2023-02-19T06:43:51.667Z,11.20
2023-02-19T06:44:51.656Z,14.10
2023-02-19T06:45:51.618Z,14.30
2023-02-19T06:46:51.593Z,13.80
2023-02-19T06:47:51.560Z,14.10
2023-02-19T06:48:51.541Z,12.40
2023-02-19T06:49:51.502Z,15.90
2023-02-19T06:50:51.481Z,15.50
2023-02-19T06:51:51.451Z,14.20
2023-02-19T06:52:51.418Z,14.30
2023-02-19T06:53:51.389Z,12.70
2023-02-19T06:54:51.380Z,14.40
2023-02-19T06:55:51.360Z,15.80
2023-02-19T06:56:51.334Z,12.20
2023-02-19T06:57:51.300Z,13.20
2023-02-19T06:58:51.289Z,11.50
2023-02-19T06:59:51.249Z,15.10
2023-02-19T07:00:51.262Z,13.70
2023-02-19T07:01:51.185Z,11.60
2023-02-19T07:02:51.159Z,12.70
2023-02-19T07:03:51.146Z,13.90
2023-02-19T07:04:51.088Z,13.40
2023-02-19T07:05:51.075Z,13.20
2023-02-19T07:06:51.033Z,15.90
2023-02-19T07:07:50.998Z,13.60
2023-02-19T07:08:50.981Z,11.90
2023-02-19T07:09:50.938Z,13.40
2023-02-19T07:10:50.909Z,12.30
2023-02-19T07:11:50.869Z,14.20
2023-02-19T07:12:50.848Z,14.60
2023-02-19T07:13:50.818Z,15.90
2023-02-19T07:14:50.791Z,13.30
2023-02-19T07:15:52.167Z,12.70
2023-02-19T07:16:50.727Z,13.40
2023-02-19T07:17:50.688Z,13.40
2023-02-19T07:18:50.650Z,13.70
2023-02-19T07:19:50.623Z,14.70
2023-02-19T07:20:50.599Z,12.50
2023-02-19T07:21:50.554Z,13.10
2023-02-19T07:22:50.526Z,14.10
2023-02-19T07:23:50.479Z,14.70
2023-02-19T07:24:50.471Z,14.30
2023-02-19T07:25:50.429Z,15.20
2023-02-19T07:26:50.391Z,11.80
2023-02-19T07:27:50.361Z,15.40
2023-02-19T07:28:50.320Z,10.20
2023-02-19T07:29:50.290Z,12.40
2023-02-19T07:30:50.298Z,12.70
2023-02-19T07:31:50.368Z,12.80
2023-02-19T07:32:50.193Z,12.40
2023-02-19T07:33:50.164Z,14.70
2023-02-19T07:34:50.138Z,12.70
2023-02-19T07:35:50.102Z,15.40
2023-02-19T07:36:50.061Z,16.40
2023-02-19T07:37:50.024Z,18.60
2023-02-19T07:38:49.995Z,17.00
2023-02-19T07:39:49.963Z,15.10
2023-02-19T07:40:49.953Z,16.40
2023-02-19T07:41:49.896Z,18.00
2023-02-19T07:42:49.858Z,15.90
2023-02-19T07:43:49.817Z,15.50
2023-02-19T07:44:49.799Z,12.70
2023-02-19T07:45:49.811Z,12.10
2023-02-19T07:46:49.739Z,13.70
2023-02-19T07:47:49.711Z,18.00
2023-02-19T07:48:49.680Z,16.70
2023-02-19T07:49:49.639Z,15.80
2023-02-19T07:50:49.621Z,13.90
2023-02-19T07:51:49.580Z,17.30
2023-02-19T07:52:49.545Z,16.30
2023-02-19T07:53:49.511Z,15.30
2023-02-19T07:54:49.491Z,21.40
2023-02-19T07:55:49.462Z,15.40
2023-02-19T07:56:49.439Z,22.50
2023-02-19T07:57:49.407Z,19.10
2023-02-19T07:58:49.386Z,16.00
2023-02-19T07:59:49.343Z,17.00
2023-02-19T08:00:49.351Z,16.20
2023-02-19T08:01:49.299Z,21.50
2023-02-19T08:02:49.261Z,33.40
2023-02-19T08:03:50.518Z,51.40
2023-02-19T08:04:49.195Z,24.20
2023-02-19T08:05:49.185Z,48.00
2023-02-19T08:06:49.148Z,41.20
2023-02-19T08:07:49.105Z,18.10
2023-02-19T08:08:49.094Z,25.70
2023-02-19T08:09:49.039Z,29.60
2023-02-19T08:10:49.035Z,29.70
2023-02-19T08:11:48.986Z,15.70
2023-02-19T08:12:48.961Z,17.40
2023-02-19T08:13:48.916Z,17.50
2023-02-19T08:14:48.908Z,20.90
2023-02-19T08:15:48.876Z,20.20
2023-02-19T08:16:48.867Z,23.20
2023-02-19T08:17:48.822Z,20.80
2023-02-19T08:18:48.814Z,18.10
2023-02-19T08:19:48.790Z,16.70
2023-02-19T08:20:48.767Z,17.20
2023-02-19T08:21:48.732Z,11.80
2023-02-19T08:22:48.689Z,18.70
2023-02-19T08:23:50.902Z,14.70
2023-02-19T08:24:48.633Z,12.00
2023-02-19T08:25:48.629Z,16.90
2023-02-19T08:26:48.597Z,19.60
2023-02-19T08:27:48.576Z,12.70
2023-02-19T08:28:48.553Z,15.20
2023-02-19T08:29:48.527Z,15.10
2023-02-19T08:30:48.628Z,18.20
2023-02-19T08:31:48.613Z,12.50
2023-02-19T08:32:48.450Z,12.50
2023-02-19T08:33:48.411Z,13.60
2023-02-19T08:34:48.380Z,11.00
2023-02-19T08:35:48.363Z,8.40
2023-02-19T08:36:48.332Z,8.70
2023-02-19T08:37:48.309Z,8.50
2023-02-19T08:38:48.280Z,9.00
2023-02-19T08:39:48.241Z,9.70
2023-02-19T08:40:48.246Z,10.70
2023-02-19T08:41:48.182Z,8.90
2023-02-19T08:42:48.149Z,9.00
2023-02-19T08:43:48.117Z,7.50
2023-02-19T08:44:48.071Z,7.40
2023-02-19T08:45:48.096Z,9.70
2023-02-19T08:46:48.011Z,10.40
2023-02-19T08:47:47.972Z,8.60
2023-02-19T08:48:47.940Z,8.90
2023-02-19T08:49:47.901Z,9.30
2023-02-19T08:50:47.884Z,11.50
2023-02-19T08:51:47.826Z,10.80
2023-02-19T08:52:47.805Z,8.50
2023-02-19T08:53:47.752Z,11.00
2023-02-19T08:54:47.712Z,9.80
2023-02-19T08:55:47.692Z,12.60
2023-02-19T08:56:47.665Z,7.60
2023-02-19T08:57:49.781Z,10.20
2023-02-19T08:58:47.607Z,9.50
2023-02-19T08:59:47.552Z,8.50
2023-02-19T09:00:47.523Z,10.20
2023-02-19T09:01:47.480Z,8.80
2023-02-19T09:02:47.453Z,9.70
2023-02-19T09:03:47.414Z,9.50
2023-02-19T09:04:47.382Z,10.10
2023-02-19T09:05:47.380Z,10.30
2023-02-19T09:06:47.334Z,10.10
2023-02-19T09:07:47.293Z,10.70
2023-02-19T09:08:47.267Z,8.30
2023-02-19T09:09:47.222Z,9.70
2023-02-19T09:10:47.205Z,8.30
2023-02-19T09:11:49.265Z,9.00
2023-02-19T09:12:47.135Z,10.40
2023-02-19T09:13:47.084Z,9.70
2023-02-19T09:14:47.063Z,11.60
2023-02-19T09:15:47.065Z,13.10
2023-02-19T09:16:47.010Z,12.60
2023-02-19T09:17:46.946Z,9.50
2023-02-19T09:18:46.937Z,9.20
2023-02-19T09:19:47.026Z,11.10
2023-02-19T09:20:46.882Z,10.80
2023-02-19T09:21:46.820Z,11.40
2023-02-19T09:22:46.792Z,10.10
2023-02-19T09:23:46.750Z,10.80
2023-02-19T09:24:46.720Z,9.70
2023-02-19T09:25:46.708Z,11.00
2023-02-19T09:26:46.661Z,8.70
2023-02-19T09:27:46.617Z,7.40
2023-02-19T09:28:46.593Z,11.20
2023-02-19T09:29:46.552Z,10.70
2023-02-19T09:30:46.551Z,8.20
2023-02-19T09:31:46.606Z,8.70
2023-02-19T09:32:46.444Z,9.50
2023-02-19T09:33:46.422Z,9.40
2023-02-19T09:34:46.395Z,11.80
2023-02-19T09:35:46.365Z,12.70
2023-02-19T09:36:46.335Z,10.90
2023-02-19T09:37:46.287Z,8.50
2023-02-19T09:38:46.282Z,9.50
2023-02-19T09:39:46.250Z,10.70
2023-02-19T09:40:46.227Z,8.20
2023-02-19T09:41:46.184Z,9.30
2023-02-19T09:42:46.165Z,9.20
2023-02-19T09:43:46.130Z,9.90
2023-02-19T09:44:46.104Z,6.90
2023-02-19T09:45:46.070Z,8.80
2023-02-19T09:46:46.062Z,7.00
2023-02-19T09:47:46.020Z,6.90
2023-02-19T09:48:46.019Z,7.90
2023-02-19T09:49:45.959Z,7.10
2023-02-19T09:50:45.936Z,8.20
2023-02-19T09:51:45.889Z,7.40
2023-02-19T09:52:45.879Z,9.80
2023-02-19T09:53:45.994Z,9.40
2023-02-19T09:54:45.807Z,12.30
2023-02-19T09:55:45.801Z,8.50
2023-02-19T09:56:45.767Z,8.10
2023-02-19T09:57:45.719Z,9.80
2023-02-19T09:58:45.699Z,10.80
2023-02-19T09:59:45.669Z,7.40
2023-02-19T10:00:45.649Z,8.00
2023-02-19T10:01:45.613Z,9.30
2023-02-19T10:02:45.589Z,8.10
2023-02-19T10:03:45.538Z,9.10
2023-02-19T10:04:45.539Z,8.80
2023-02-19T10:05:45.488Z,11.10
2023-02-19T10:06:45.456Z,7.90
2023-02-19T10:07:45.425Z,11.40
2023-02-19T10:08:45.397Z,11.60
2023-02-19T10:09:45.350Z,9.50
2023-02-19T10:10:45.332Z,11.10
2023-02-19T10:11:45.297Z,9.60
2023-02-19T10:12:45.269Z,9.30
2023-02-19T10:13:45.227Z,11.80
2023-02-19T10:14:45.191Z,11.10
2023-02-19T10:15:45.171Z,12.60
2023-02-19T10:16:45.132Z,11.30
2023-02-19T10:17:45.080Z,16.10
2023-02-19T10:18:45.053Z,10.00
2023-02-19T10:19:45.015Z,12.40
2023-02-19T10:20:44.970Z,17.40
2023-02-19T10:21:44.941Z,14.40
2023-02-19T10:22:44.891Z,13.70
2023-02-19T10:23:44.850Z,17.10
2023-02-19T10:24:44.822Z,15.00
2023-02-19T10:25:44.794Z,18.50
2023-02-19T10:26:44.753Z,17.50
2023-02-19T10:27:44.714Z,23.20
2023-02-19T10:28:44.673Z,21.10
2023-02-19T10:29:44.635Z,18.60
2023-02-19T10:30:44.598Z,17.90
2023-02-19T10:31:44.643Z,17.80
2023-02-19T10:32:44.504Z,20.10
2023-02-19T10:33:44.464Z,19.60
2023-02-19T10:34:44.436Z,16.00
2023-02-19T10:35:44.385Z,17.60
2023-02-19T10:36:44.366Z,17.30
2023-02-19T10:37:44.312Z,21.40
2023-02-19T10:38:44.275Z,15.20
2023-02-19T10:39:44.229Z,15.60
2023-02-19T10:40:44.197Z,14.00
2023-02-19T10:41:44.452Z,15.80
2023-02-19T10:42:44.099Z,13.80
2023-02-19T10:43:44.062Z,11.60
2023-02-19T10:44:44.028Z,16.30
2023-02-19T10:45:43.979Z,13.90
2023-02-19T10:46:43.983Z,11.70
2023-02-19T10:47:43.909Z,9.70
2023-02-19T10:48:43.880Z,13.30
2023-02-19T10:49:43.830Z,15.60
2023-02-19T10:50:43.790Z,16.70
2023-02-19T10:51:43.772Z,15.30
2023-02-19T10:52:43.729Z,17.90
2023-02-19T10:53:43.680Z,14.40
2023-02-19T10:54:43.652Z,13.00
2023-02-19T10:55:43.621Z,9.90
2023-02-19T10:56:43.596Z,18.10
2023-02-19T10:57:43.542Z,9.40
2023-02-19T10:58:43.531Z,7.20
2023-02-19T10:59:43.484Z,6.70
2023-02-19T11:00:43.452Z,9.80
2023-02-19T11:01:43.447Z,5.80
2023-02-19T11:02:43.393Z,4.10
2023-02-19T11:03:43.361Z,7.30
2023-02-19T11:04:43.401Z,3.50
2023-02-19T11:05:43.302Z,4.90
2023-02-19T11:06:43.285Z,2.90
2023-02-19T11:07:43.243Z,5.30
2023-02-19T11:08:43.223Z,3.50
2023-02-19T11:09:43.200Z,4.30
2023-02-19T11:10:43.163Z,3.30
2023-02-19T11:11:43.144Z,2.80
2023-02-19T11:12:43.109Z,4.20
2023-02-19T11:13:43.078Z,3.40
2023-02-19T11:14:43.056Z,3.60
2023-02-19T11:15:43.026Z,3.20
2023-02-19T11:16:43.010Z,4.20
2023-02-19T11:17:42.955Z,4.50
2023-02-19T11:18:42.937Z,5.50
2023-02-19T11:19:42.907Z,3.00
2023-02-19T11:20:42.856Z,2.50
2023-02-19T11:21:42.867Z,6.40
2023-02-19T11:22:42.805Z,3.30
2023-02-19T11:23:42.777Z,4.70
2023-02-19T11:24:42.748Z,7.00
2023-02-19T11:25:42.726Z,6.70
2023-02-19T11:26:42.686Z,14.00
2023-02-19T11:27:42.658Z,15.30
2023-02-19T11:28:42.617Z,8.40
2023-02-19T11:29:42.585Z,10.30
2023-02-19T11:30:42.579Z,23.30
2023-02-19T11:31:42.594Z,6.50
2023-02-19T11:32:42.488Z,9.40
2023-02-19T11:33:42.458Z,6.40
2023-02-19T11:34:42.428Z,9.50
2023-02-19T11:35:42.380Z,8.00
2023-02-19T11:36:42.381Z,8.90
2023-02-19T11:37:42.321Z,20.80
2023-02-19T11:38:42.282Z,6.90
2023-02-19T11:39:42.260Z,13.70
2023-02-19T11:40:42.212Z,9.20
2023-02-19T11:41:42.206Z,16.30
2023-02-19T11:42:42.173Z,8.80
2023-02-19T11:43:42.150Z,7.30
2023-02-19T11:44:42.105Z,4.70
2023-02-19T11:45:42.097Z,2.70
2023-02-19T11:46:42.110Z,2.10
2023-02-19T11:47:42.030Z,4.00
2023-02-19T11:48:41.988Z,3.60
2023-02-19T11:49:41.959Z,3.60
2023-02-19T11:50:41.928Z,3.40
2023-02-19T11:51:41.910Z,3.90
2023-02-19T11:52:41.882Z,3.00
2023-02-19T11:53:41.839Z,2.90
2023-02-19T11:54:41.815Z,6.80
2023-02-19T11:55:41.772Z,3.80
2023-02-19T11:56:41.748Z,3.20
2023-02-19T11:57:41.707Z,2.60
2023-02-19T11:58:41.731Z,5.30
2023-02-19T11:59:41.657Z,3.40
2023-02-19T12:00:41.619Z,2.00
2023-02-19T12:01:41.671Z,1.40
2023-02-19T12:02:41.539Z,1.90
2023-02-19T12:03:41.528Z,1.30
2023-02-19T12:04:41.482Z,0.70
2023-02-19T12:05:41.460Z,1.30
2023-02-19T12:06:41.441Z,1.00
2023-02-19T12:07:41.395Z,2.10
2023-02-19T12:08:41.371Z,4.70
2023-02-19T12:09:41.327Z,2.10
2023-02-19T12:10:41.298Z,1.90
2023-02-19T12:11:41.292Z,3.00
2023-02-19T12:12:41.239Z,2.80
2023-02-19T12:13:41.220Z,3.60
2023-02-19T12:14:41.200Z,2.30
2023-02-19T12:15:41.181Z,7.20
2023-02-19T12:16:41.173Z,5.30
2023-02-19T12:17:41.129Z,5.60
2023-02-19T12:18:41.099Z,4.60
2023-02-19T12:19:41.082Z,1.00
2023-02-19T12:20:41.061Z,1.40
2023-02-19T12:21:41.049Z,5.30
2023-02-19T12:22:40.992Z,5.50
2023-02-19T12:23:40.962Z,6.50
2023-02-19T12:24:40.942Z,10.10
2023-02-19T12:25:40.912Z,11.10
2023-02-19T12:26:40.880Z,15.10
2023-02-19T12:27:40.857Z,7.10
2023-02-19T12:28:40.816Z,5.40
2023-02-19T12:29:40.783Z,14.30
2023-02-19T12:30:40.783Z,12.90
2023-02-19T12:31:40.785Z,7.50
2023-02-19T12:32:40.719Z,6.00
2023-02-19T12:33:40.683Z,5.40
2023-02-19T12:34:40.663Z,6.00
2023-02-19T12:35:40.643Z,5.60
2023-02-19T12:36:40.628Z,6.60
2023-02-19T12:37:40.584Z,5.60
2023-02-19T12:38:40.563Z,5.30
2023-02-19T12:39:40.550Z,2.30
2023-02-19T12:40:40.503Z,3.30
2023-02-19T12:41:40.495Z,5.20
2023-02-19T12:42:40.484Z,7.20
2023-02-19T12:43:40.448Z,5.60
2023-02-19T12:44:40.437Z,2.80
2023-02-19T12:45:40.476Z,6.20
2023-02-19T12:46:40.401Z,3.20
2023-02-19T12:47:40.377Z,5.10
2023-02-19T12:48:40.376Z,4.40
2023-02-19T12:49:40.355Z,5.40
2023-02-19T12:50:40.341Z,7.40
2023-02-19T12:51:40.338Z,2.90
2023-02-19T12:52:40.328Z,5.20
2023-02-19T12:53:40.297Z,5.70
2023-02-19T12:54:40.269Z,2.20
2023-02-19T12:55:40.267Z,4.40
2023-02-19T12:56:40.244Z,4.00
2023-02-19T12:57:40.212Z,2.70